Time;durP1;ratioP1;P1;durP2;ratioP2;P2;SDS_P1;SDS_P2;PMS_P1;PMS_P2;Temp;Humidity;BMP_temperature;BMP_pressure;BME280_temperature;BME280_humidity;BME280_pressure;Samples;Min_cycle;Max_cycle;Signal;HPM_P1;HPM_P2
2023/03/14 00:00:29;;;;;;;4.60;0.80;;;14.20;99.90;;;;;;5042968;28;21096;-34
2023/03/14 00:03:01;;;;;;;6.60;1.10;;;14.20;99.90;;;;;;5044108;28;20802;-33
2023/03/14 00:05:30;;;;;;;4.00;1.10;;;14.10;99.90;;;;;;5058006;28;20199;-33
2023/03/14 00:07:58;;;;;;;3.47;0.93;;;14.10;99.90;;;;;;5065222;28;20200;-31
2023/03/14 00:10:27;;;;;;;3.47;1.10;;;14.10;99.90;;;;;;5029528;28;20219;-31
2023/03/14 00:12:56;;;;;;;3.67;1.10;;;14.10;99.90;;;;;;5064890;28;20207;-31
2023/03/14 00:15:24;;;;;;;5.90;1.20;;;14.10;99.90;;;;;;5064823;28;20210;-31
2023/03/14 00:17:51;;;;;;;6.40;1.07;;;14.10;99.90;;;;;;5063411;28;20227;-31
2023/03/14 00:20:18;;;;;;;3.67;1.23;;;14.10;99.90;;;;;;5054849;28;20210;-31
2023/03/14 00:22:50;;;;;;;6.20;1.37;;;14.10;99.90;;;;;;5045572;28;20204;-31
2023/03/14 00:25:19;;;;;;;7.43;1.30;;;14.10;99.90;;;;;;5042548;28;20192;-31
2023/03/14 00:27:47;;;;;;;6.33;1.30;;;14.10;99.90;;;;;;5045066;28;20237;-31
2023/03/14 00:30:14;;;;;;;4.97;1.10;;;14.10;99.90;;;;;;5044715;28;20227;-30
2023/03/14 00:32:43;;;;;;;6.03;1.00;;;14.10;99.90;;;;;;5043604;28;20211;-30
2023/03/14 00:35:15;;;;;;;6.33;1.40;;;14.10;99.90;;;;;;5063592;28;20694;-30
2023/03/14 00:37:42;;;;;;;4.37;1.33;;;14.10;99.90;;;;;;5047456;28;20574;-30
2023/03/14 00:40:12;;;;;;;4.47;1.40;;;14.10;99.90;;;;;;5046161;28;20727;-30
2023/03/14 00:42:39;;;;;;;5.20;1.43;;;14.10;99.90;;;;;;5048512;28;20257;-30
2023/03/14 00:45:10;;;;;;;4.50;1.57;;;14.10;99.90;;;;;;5030830;28;20296;-30
2023/03/14 00:47:40;;;;;;;5.63;1.43;;;14.10;99.90;;;;;;5048528;28;20208;-30
2023/03/14 00:50:10;;;;;;;6.00;1.53;;;14.20;99.90;;;;;;5048018;28;20823;-30
2023/03/14 00:52:42;;;;;;;4.70;1.53;;;14.10;99.90;;;;;;5046767;28;20234;-30
2023/03/14 00:55:11;;;;;;;6.70;1.80;;;14.10;99.90;;;;;;5062826;28;20307;-30
2023/03/14 00:57:40;;;;;;;6.50;1.63;;;14.10;99.90;;;;;;5048437;28;20224;-30
2023/03/14 01:00:11;;;;;;;6.97;2.03;;;14.10;99.90;;;;;;5051781;28;20313;-30
2023/03/14 01:02:39;;;;;;;7.40;2.13;;;14.10;99.90;;;;;;5058286;28;20720;-30
2023/03/14 01:05:12;;;;;;;4.43;1.13;;;14.10;99.90;;;;;;5047380;28;20319;-30
2023/03/14 01:07:42;;;;;;;3.60;1.30;;;14.00;99.90;;;;;;5048218;28;20678;-30
2023/03/14 01:10:12;;;;;;;4.60;1.43;;;14.00;99.90;;;;;;5047047;28;20611;-30
2023/03/14 01:12:39;;;;;;;6.67;1.77;;;14.00;99.90;;;;;;5048191;28;20224;-30
2023/03/14 01:15:09;;;;;;;8.73;1.63;;;14.00;99.90;;;;;;5044504;28;20717;-32
2023/03/14 01:17:39;;;;;;;6.80;1.80;;;14.00;99.90;;;;;;5046026;28;20222;-32
2023/03/14 01:20:15;;;;;;;6.67;1.67;;;14.00;99.90;;;;;;5046320;28;20204;-32
2023/03/14 01:22:43;;;;;;;4.40;1.53;;;14.00;99.90;;;;;;5046381;28;20724;-31
2023/03/14 01:25:17;;;;;;;6.43;1.63;;;14.00;99.90;;;;;;5045495;28;20206;-32
2023/03/14 01:27:45;;;;;;;5.10;1.30;;;14.00;99.90;;;;;;5046877;28;20587;-32
2023/03/14 01:30:18;;;;;;;6.73;1.97;;;13.90;99.90;;;;;;5047962;28;20614;-32
2023/03/14 01:32:45;;;;;;;6.97;2.27;;;13.90;99.90;;;;;;5047694;28;20239;-33
2023/03/14 01:35:12;;;;;;;8.47;1.87;;;13.90;99.90;;;;;;5047334;28;20211;-32
2023/03/14 01:37:44;;;;;;;8.50;2.03;;;13.90;99.90;;;;;;5047499;28;20244;-33
2023/03/14 01:40:16;;;;;;;6.67;2.07;;;13.90;99.90;;;;;;5046715;28;20208;-32
2023/03/14 01:42:57;;;;;;;9.63;2.00;;;13.90;99.90;;;;;;5047788;28;20248;-32
2023/03/14 01:46:02;;;;;;;7.80;1.80;;;13.90;99.90;;;;;;5046888;28;20208;-32
2023/03/14 01:48:49;;;;;;;8.77;2.27;;;13.90;99.90;;;;;;5047633;28;20717;-31
2023/03/14 01:51:49;;;;;;;6.10;1.50;;;13.80;99.90;;;;;;5046973;28;20212;-31
2023/03/14 01:54:21;;;;;;;8.00;1.90;;;13.80;99.90;;;;;;5045033;28;20243;-31
2023/03/14 01:57:00;;;;;;;8.07;1.57;;;13.80;99.90;;;;;;5045130;28;20214;-31
2023/03/14 01:59:31;;;;;;;8.73;1.83;;;13.70;99.90;;;;;;5044041;28;20694;-30
2023/03/14 02:02:05;;;;;;;8.10;1.87;;;13.70;99.90;;;;;;5046704;28;20253;-31
2023/03/14 02:04:38;;;;;;;5.27;1.30;;;13.70;99.90;;;;;;5045305;28;20670;-31
2023/03/14 02:07:27;;;;;;;3.63;1.07;;;13.70;99.90;;;;;;5046723;28;20227;-30
2023/03/14 02:10:00;;;;;;;7.33;1.30;;;13.70;99.90;;;;;;5044773;28;20201;-30
2023/03/14 02:12:28;;;;;;;5.23;1.37;;;13.70;99.90;;;;;;5036923;28;20204;-31
2023/03/14 02:14:57;;;;;;;4.33;1.00;;;13.60;99.90;;;;;;5044853;28;20216;-30
2023/03/14 02:17:27;;;;;;;6.33;1.10;;;13.60;99.90;;;;;;5024922;28;20343;-31
2023/03/14 02:20:12;;;;;;;4.50;1.10;;;13.60;99.90;;;;;;5041809;28;20303;-31
2023/03/14 02:22:47;;;;;;;4.73;0.90;;;13.60;99.90;;;;;;5046535;28;20203;-31
2023/03/14 02:25:23;;;;;;;2.40;0.70;;;13.60;99.90;;;;;;5045797;28;20211;-30
2023/03/14 02:27:55;;;;;;;4.43;1.20;;;13.50;99.90;;;;;;5045175;28;20224;-30
2023/03/14 02:30:29;;;;;;;3.83;1.00;;;13.50;99.90;;;;;;5044640;28;20294;-30
2023/03/14 02:33:19;;;;;;;3.20;0.93;;;13.50;99.90;;;;;;5044716;28;20303;-31
2023/03/14 02:35:54;;;;;;;3.60;0.90;;;13.40;99.90;;;;;;5045103;28;20211;-30
2023/03/14 02:38:36;;;;;;;3.67;1.10;;;13.40;99.90;;;;;;5045059;28;20223;-30
2023/03/14 02:41:04;;;;;;;3.13;0.70;;;13.40;99.90;;;;;;5044034;28;20212;-30
2023/03/14 02:43:31;;;;;;;3.50;0.77;;;13.30;99.90;;;;;;5045940;28;20738;-30
2023/03/14 02:46:03;;;;;;;2.07;0.63;;;13.30;99.90;;;;;;5046230;28;20265;-30
2023/03/14 02:48:44;;;;;;;2.60;0.90;;;13.30;99.90;;;;;;5049300;28;20207;-30
2023/03/14 02:51:14;;;;;;;3.20;0.70;;;13.20;99.90;;;;;;5063999;28;20220;-30
2023/03/14 02:53:46;;;;;;;2.43;0.90;;;13.20;99.90;;;;;;5066063;28;20235;-30
2023/03/14 02:56:13;;;;;;;2.80;0.80;;;13.20;99.90;;;;;;5053072;28;20254;-30
2023/03/14 02:58:40;;;;;;;4.37;1.10;;;13.20;99.90;;;;;;5045694;28;20236;-30
2023/03/14 03:01:07;;;;;;;4.63;1.10;;;13.20;99.90;;;;;;5045978;28;20540;-30
2023/03/14 03:03:35;;;;;;;2.77;1.03;;;13.20;99.90;;;;;;5045857;28;20207;-30
2023/03/14 03:06:04;;;;;;;3.27;0.70;;;13.10;99.90;;;;;;5046753;28;20263;-30
2023/03/14 03:08:32;;;;;;;2.90;0.70;;;13.20;99.90;;;;;;5045775;28;20319;-30
2023/03/14 03:10:59;;;;;;;3.93;0.80;;;13.10;99.90;;;;;;5045097;28;20222;-30
2023/03/14 03:13:26;;;;;;;3.33;1.07;;;13.10;99.90;;;;;;5045517;28;20702;-30
2023/03/14 03:15:53;;;;;;;3.07;1.00;;;13.10;99.90;;;;;;5045751;28;20228;-30
2023/03/14 03:18:23;;;;;;;1.93;0.57;;;13.10;99.90;;;;;;5027571;28;20227;-30
2023/03/14 03:20:52;;;;;;;3.67;1.00;;;13.10;99.90;;;;;;5043726;28;20203;-30
2023/03/14 03:23:22;;;;;;;3.57;1.03;;;13.10;99.90;;;;;;5044089;28;20204;-29
2023/03/14 03:25:52;;;;;;;4.77;1.30;;;13.10;99.90;;;;;;5044682;28;20687;-29
2023/03/14 03:28:22;;;;;;;3.57;0.93;;;13.10;99.90;;;;;;5045671;28;20586;-30
2023/03/14 03:30:51;;;;;;;3.93;1.17;;;13.10;99.90;;;;;;5045468;28;20706;-29
2023/03/14 03:33:22;;;;;;;5.57;1.70;;;13.10;99.90;;;;;;5043936;28;20261;-29
2023/03/14 03:35:52;;;;;;;4.60;1.20;;;13.10;99.90;;;;;;5045284;28;20211;-29
2023/03/14 03:38:22;;;;;;;5.37;1.43;;;13.10;99.90;;;;;;5043909;28;20220;-29
2023/03/14 03:40:51;;;;;;;5.03;1.53;;;13.10;99.90;;;;;;5045101;28;20203;-30
2023/03/14 03:43:20;;;;;;;5.47;1.50;;;13.10;99.90;;;;;;5042554;28;20238;-29
2023/03/14 03:45:54;;;;;;;5.63;1.90;;;13.10;99.90;;;;;;5023739;28;20221;-30
2023/03/14 03:48:22;;;;;;;7.67;1.87;;;13.10;99.90;;;;;;5023609;28;20259;-30
2023/03/14 03:50:51;;;;;;;5.43;1.60;;;13.10;99.90;;;;;;5023182;28;20319;-29
2023/03/14 03:53:19;;;;;;;4.67;1.60;;;13.20;99.90;;;;;;5023045;28;20588;-30
2023/03/14 03:56:01;;;;;;;7.50;1.53;;;13.10;99.90;;;;;;5022646;28;20240;-30
2023/03/14 03:58:31;;;;;;;6.03;1.80;;;13.10;99.90;;;;;;5028538;28;20236;-29
2023/03/14 04:01:00;;;;;;;5.60;1.57;;;13.10;99.90;;;;;;5042533;28;20214;-30
2023/03/14 04:03:30;;;;;;;6.20;1.90;;;13.20;99.90;;;;;;5044767;28;20621;-30
2023/03/14 04:06:02;;;;;;;5.03;1.43;;;13.10;99.90;;;;;;5044460;28;20642;-30
2023/03/14 04:08:34;;;;;;;3.53;1.40;;;13.10;99.90;;;;;;5047999;28;20216;-30
2023/03/14 04:11:04;;;;;;;3.23;1.43;;;13.10;99.90;;;;;;5048058;28;20207;-29
2023/03/14 04:13:31;;;;;;;4.50;1.23;;;13.10;99.90;;;;;;5048714;28;20200;-29
2023/03/14 04:16:01;;;;;;;5.43;1.50;;;13.10;99.90;;;;;;5046839;28;20235;-29
2023/03/14 04:18:30;;;;;;;3.23;1.13;;;13.10;99.90;;;;;;5047217;28;20216;-29
2023/03/14 04:20:58;;;;;;;4.63;1.47;;;13.10;99.90;;;;;;5053665;28;20682;-29
2023/03/14 04:23:30;;;;;;;5.67;1.33;;;13.10;99.90;;;;;;5068325;28;20241;-29
2023/03/14 04:25:57;;;;;;;4.63;1.20;;;13.10;99.90;;;;;;5067419;28;20215;-30
2023/03/14 04:28:27;;;;;;;5.60;1.50;;;13.10;99.90;;;;;;5068343;28;20207;-30
2023/03/14 04:30:56;;;;;;;5.33;1.50;;;13.10;99.90;;;;;;5068012;28;20216;-30
2023/03/14 04:33:26;;;;;;;6.00;1.30;;;13.10;99.90;;;;;;5050318;28;20313;-30
2023/03/14 04:35:55;;;;;;;2.67;1.10;;;13.10;99.90;;;;;;5058716;28;20211;-30
2023/03/14 04:38:22;;;;;;;4.17;1.20;;;13.10;99.90;;;;;;5067982;28;20219;-30
2023/03/14 04:40:52;;;;;;;4.03;1.20;;;13.10;99.90;;;;;;5067156;28;20203;-30
2023/03/14 04:43:21;;;;;;;2.70;1.30;;;13.10;99.90;;;;;;5068019;28;20192;-30
2023/03/14 04:45:48;;;;;;;3.43;1.40;;;13.10;99.90;;;;;;5067498;28;20302;-30
2023/03/14 04:48:15;;;;;;;4.10;1.13;;;13.10;99.90;;;;;;5067971;28;20677;-29
2023/03/14 04:50:50;;;;;;;2.60;1.10;;;13.10;99.90;;;;;;5067658;28;20298;-30
2023/03/14 04:53:22;;;;;;;4.70;1.30;;;13.10;99.90;;;;;;5054184;28;20293;-30
2023/03/14 04:55:54;;;;;;;3.30;1.20;;;13.10;99.90;;;;;;5045712;28;20759;-29
2023/03/14 04:58:26;;;;;;;5.30;1.23;;;13.10;99.90;;;;;;5047702;28;20545;-29
2023/03/14 05:00:55;;;;;;;3.73;1.03;;;13.10;99.90;;;;;;5047596;28;20638;-30
2023/03/14 05:03:24;;;;;;;4.20;1.23;;;13.10;99.90;;;;;;5047746;28;20700;-29
2023/03/14 05:05:54;;;;;;;2.10;0.80;;;13.20;99.90;;;;;;5046351;28;20730;-30
2023/03/14 05:08:22;;;;;;;3.83;0.73;;;13.20;99.90;;;;;;5046535;28;20200;-30
2023/03/14 05:10:54;;;;;;;3.03;1.07;;;13.10;99.90;;;;;;5046790;28;20222;-29
2023/03/14 05:13:26;;;;;;;2.60;0.90;;;13.10;99.90;;;;;;5047520;28;20671;-29
2023/03/14 05:15:55;;;;;;;5.13;1.13;;;13.20;99.90;;;;;;5047109;28;20655;-29
2023/03/14 05:18:26;;;;;;;2.30;1.00;;;13.20;99.90;;;;;;5067290;28;20742;-29
2023/03/14 05:20:54;;;;;;;2.07;1.00;;;13.20;99.90;;;;;;5065721;28;20739;-30
2023/03/14 05:23:21;;;;;;;2.83;1.37;;;13.20;99.90;;;;;;5065917;28;20354;-30
2023/03/14 05:25:48;;;;;;;3.07;1.13;;;13.20;99.90;;;;;;5066098;28;20299;-30
2023/03/14 05:28:17;;;;;;;2.00;0.83;;;13.20;99.90;;;;;;5067242;28;20294;-30
2023/03/14 05:30:46;;;;;;;1.40;0.80;;;13.20;99.90;;;;;;5067202;28;20215;-30
2023/03/14 05:33:17;;;;;;;3.33;1.20;;;13.20;99.90;;;;;;5065626;28;20203;-30
2023/03/14 05:35:44;;;;;;;2.33;1.33;;;13.20;99.90;;;;;;5066914;28;20203;-30
2023/03/14 05:38:16;;;;;;;2.57;1.20;;;13.30;99.90;;;;;;5066167;28;20572;-30
2023/03/14 05:40:45;;;;;;;4.00;1.40;;;13.30;99.90;;;;;;5064525;28;20734;-30
2023/03/14 05:43:12;;;;;;;3.93;2.33;;;13.30;99.90;;;;;;5065308;28;20690;-30
2023/03/14 05:45:44;;;;;;;2.33;1.30;;;13.30;99.90;;;;;;5065224;28;20192;-30
2023/03/14 05:48:14;;;;;;;3.13;1.40;;;13.30;99.90;;;;;;5046852;28;20847;-30
2023/03/14 05:50:41;;;;;;;2.80;1.50;;;13.30;99.90;;;;;;5045015;28;20287;-30
2023/03/14 05:53:08;;;;;;;4.90;1.20;;;13.30;99.90;;;;;;5045173;28;20242;-30
2023/03/14 05:55:35;;;;;;;1.70;1.13;;;13.30;99.90;;;;;;5044328;28;20230;-29
2023/03/14 05:58:02;;;;;;;3.23;1.23;;;13.30;99.90;;;;;;5045148;28;20513;-29
2023/03/14 06:00:32;;;;;;;2.67;1.47;;;13.30;99.90;;;;;;5041411;28;20213;-30
2023/03/14 06:02:59;;;;;;;2.07;1.30;;;13.30;99.90;;;;;;5061533;28;20231;-29
2023/03/14 06:05:28;;;;;;;2.87;1.40;;;13.30;99.90;;;;;;5045062;28;20279;-29
2023/03/14 06:07:58;;;;;;;3.13;1.50;;;13.30;99.90;;;;;;5040116;28;20202;-29
2023/03/14 06:10:25;;;;;;;2.10;1.40;;;13.30;99.90;;;;;;5043417;28;20211;-30
2023/03/14 06:12:52;;;;;;;1.43;1.20;;;13.30;99.90;;;;;;5044899;28;20254;-30
2023/03/14 06:15:22;;;;;;;2.00;1.67;;;13.30;99.90;;;;;;5045972;28;20600;-30
2023/03/14 06:17:49;;;;;;;1.80;1.60;;;13.40;99.90;;;;;;5044496;28;20670;-30
2023/03/14 06:20:18;;;;;;;3.37;1.83;;;13.40;99.90;;;;;;5060479;28;20251;-30
2023/03/14 06:22:48;;;;;;;2.87;2.30;;;13.40;99.90;;;;;;5061059;28;20204;-30
2023/03/14 06:25:16;;;;;;;2.23;1.93;;;13.40;99.90;;;;;;5045327;28;21157;-30
2023/03/14 06:27:43;;;;;;;2.67;2.23;;;13.40;99.90;;;;;;5044684;28;20665;-30
2023/03/14 06:30:11;;;;;;;4.23;2.30;;;13.40;99.90;;;;;;5045372;28;20212;-30
2023/03/14 06:32:38;;;;;;;4.03;2.60;;;13.40;99.90;;;;;;5045311;28;20208;-30
2023/03/14 06:35:10;;;;;;;7.43;2.67;;;13.40;99.90;;;;;;5045614;28;20565;-32
2023/03/14 06:37:40;;;;;;;5.23;2.27;;;13.40;99.90;;;;;;5045734;28;20244;-32
2023/03/14 06:40:16;;;;;;;3.97;2.37;;;13.40;99.90;;;;;;5059434;28;20319;-32
2023/03/14 06:42:47;;;;;;;6.67;2.63;;;13.40;99.90;;;;;;5043509;28;20231;-32
2023/03/14 06:45:17;;;;;;;3.70;2.17;;;13.50;99.90;;;;;;5043865;28;20210;-33
2023/03/14 06:47:47;;;;;;;4.87;1.70;;;13.50;99.90;;;;;;5044187;28;20215;-33
2023/03/14 06:50:18;;;;;;;2.37;1.33;;;13.40;99.90;;;;;;5060040;28;20291;-33
2023/03/14 06:52:47;;;;;;;3.23;1.40;;;13.40;99.90;;;;;;5060177;28;20298;-32
2023/03/14 06:55:17;;;;;;;4.23;1.20;;;13.40;99.90;;;;;;5059168;28;20204;-33
2023/03/14 06:57:47;;;;;;;3.07;1.40;;;13.50;99.90;;;;;;5044690;28;20254;-33
2023/03/14 07:00:14;;;;;;;2.17;1.10;;;13.50;99.90;;;;;;5043616;28;20228;-34
2023/03/14 07:02:44;;;;;;;2.67;1.23;;;13.50;99.90;;;;;;5045711;28;20200;-32
2023/03/14 07:05:14;;;;;;;6.07;1.70;;;13.50;99.90;;;;;;5050573;28;20208;-33
2023/03/14 07:07:41;;;;;;;4.23;1.00;;;13.50;99.90;;;;;;5044657;28;20257;-33
2023/03/14 07:10:09;;;;;;;3.23;1.20;;;13.50;99.90;;;;;;5041205;28;20749;-33
2023/03/14 07:12:38;;;;;;;3.60;0.80;;;13.40;99.90;;;;;;5046353;28;20625;-33
2023/03/14 07:15:06;;;;;;;0.70;0.40;;;13.40;99.90;;;;;;5051122;28;20864;-34
2023/03/14 07:17:49;;;;;;;1.60;0.50;;;13.20;99.90;;;;;;5034281;28;20674;-34
2023/03/14 07:20:18;;;;;;;1.00;0.50;;;13.00;99.90;;;;;;5041797;28;20242;-34
2023/03/14 07:22:51;;;;;;;0.70;0.57;;;12.90;99.90;;;;;;5045265;28;20221;-34
2023/03/14 07:25:18;;;;;;;0.50;0.50;;;12.60;99.90;;;;;;5044533;28;20207;-34
2023/03/14 07:27:46;;;;;;;1.13;0.60;;;12.40;99.90;;;;;;5044642;28;20193;-33
2023/03/14 07:30:19;;;;;;;2.57;0.70;;;12.20;99.90;;;;;;5038182;28;20255;-34
2023/03/14 07:32:46;;;;;;;1.63;0.70;;;12.00;99.90;;;;;;5040934;28;20201;-34
2023/03/14 07:35:15;;;;;;;2.47;0.60;;;11.90;99.90;;;;;;5040068;28;20617;-34
2023/03/14 07:37:45;;;;;;;2.13;0.90;;;11.80;99.90;;;;;;5039662;28;20196;-33
2023/03/14 07:40:14;;;;;;;1.63;0.60;;;11.70;99.90;;;;;;5038760;28;20267;-34
2023/03/14 07:42:44;;;;;;;1.80;0.73;;;11.60;99.90;;;;;;5041484;28;20698;-32
2023/03/14 07:45:13;;;;;;;1.80;0.60;;;11.50;99.90;;;;;;5043133;28;20192;-32
2023/03/14 07:47:43;;;;;;;4.57;1.07;;;11.40;99.90;;;;;;5032580;28;20357;-32
2023/03/14 07:50:20;;;;;;;2.77;0.80;;;11.30;99.90;;;;;;5043725;28;20231;-31
2023/03/14 07:52:49;;;;;;;2.07;0.60;;;11.20;99.90;;;;;;5045109;28;20289;-31
2023/03/14 07:55:17;;;;;;;3.63;1.13;;;11.10;99.90;;;;;;5040849;28;20635;-32
2023/03/14 07:57:44;;;;;;;5.23;0.80;;;11.00;99.90;;;;;;5038422;28;20274;-32
2023/03/14 08:00:14;;;;;;;3.77;1.10;;;11.00;99.90;;;;;;5039743;28;20581;-36
2023/03/14 08:02:46;;;;;;;2.20;0.97;;;10.90;99.90;;;;;;5043551;28;20623;-32
2023/03/14 08:05:14;;;;;;;3.07;0.70;;;10.80;99.90;;;;;;5042492;28;20314;-32
2023/03/14 08:07:41;;;;;;;3.63;1.30;;;10.70;99.90;;;;;;5045963;28;20287;-32
2023/03/14 08:10:09;;;;;;;2.97;1.40;;;10.70;99.90;;;;;;5021362;28;20263;-32
2023/03/14 08:12:38;;;;;;;6.00;1.53;;;10.70;99.90;;;;;;5048287;28;20301;-32
2023/03/14 08:15:06;;;;;;;2.93;1.30;;;10.60;99.90;;;;;;5044135;28;20678;-32
2023/03/14 08:17:33;;;;;;;4.03;1.77;;;10.60;99.90;;;;;;5042831;28;20691;-32
2023/03/14 08:20:06;;;;;;;4.20;1.60;;;10.70;99.90;;;;;;5040932;28;20636;-34
2023/03/14 08:22:38;;;;;;;3.63;2.10;;;10.60;99.90;;;;;;5044139;28;20207;-31
2023/03/14 08:25:06;;;;;;;3.67;2.00;;;10.60;99.90;;;;;;5041952;28;20653;-31
2023/03/14 08:27:37;;;;;;;3.83;1.90;;;10.60;99.90;;;;;;5044591;28;20200;-33
2023/03/14 08:30:06;;;;;;;6.27;2.10;;;10.60;99.90;;;;;;5042559;28;20208;-33
2023/03/14 08:32:34;;;;;;;3.63;2.30;;;10.60;99.90;;;;;;5041405;28;20307;-33
2023/03/14 08:35:01;;;;;;;6.60;2.50;;;10.60;99.90;;;;;;5040173;28;20215;-32
2023/03/14 08:37:33;;;;;;;5.47;2.27;;;10.60;99.90;;;;;;5024329;28;20263;-32
2023/03/14 08:40:00;;;;;;;4.93;2.70;;;10.60;99.90;;;;;;5035119;28;20327;-33
2023/03/14 08:42:28;;;;;;;4.53;2.00;;;10.60;99.90;;;;;;5053739;28;20632;-32
2023/03/14 08:44:58;;;;;;;3.30;2.30;;;10.60;99.90;;;;;;5064653;28;20203;-33
2023/03/14 08:47:27;;;;;;;2.37;1.70;;;10.60;99.90;;;;;;5050481;28;20636;-33
2023/03/14 08:49:57;;;;;;;3.77;1.50;;;10.60;99.90;;;;;;5043944;28;20287;-32
2023/03/14 08:52:24;;;;;;;3.03;1.30;;;10.60;99.90;;;;;;5042327;28;20643;-32
2023/03/14 08:54:54;;;;;;;3.37;1.40;;;10.60;99.90;;;;;;5049043;28;20248;-32
2023/03/14 08:57:21;;;;;;;3.53;1.27;;;10.50;99.90;;;;;;5052888;28;20286;-33
2023/03/14 08:59:49;;;;;;;3.17;1.40;;;10.50;99.90;;;;;;5044868;28;20262;-33
2023/03/14 09:02:20;;;;;;;1.73;1.00;;;10.40;99.90;;;;;;5046182;28;20207;-33
2023/03/14 09:04:51;;;;;;;4.60;1.23;;;10.30;99.90;;;;;;5039077;28;20204;-33
2023/03/14 09:07:21;;;;;;;3.17;1.10;;;10.30;99.90;;;;;;5041474;28;20211;-34
2023/03/14 09:09:48;;;;;;;2.50;0.97;;;10.30;99.90;;;;;;5047004;28;20239;-33
2023/03/14 09:12:15;;;;;;;2.13;1.13;;;10.30;99.90;;;;;;5046981;28;20208;-33
2023/03/14 09:14:45;;;;;;;5.00;1.37;;;10.30;99.90;;;;;;5045010;28;20765;-33
2023/03/14 09:17:14;;;;;;;3.43;1.40;;;10.30;99.90;;;;;;5049608;28;20261;-32
2023/03/14 09:19:41;;;;;;;3.97;1.80;;;10.30;99.90;;;;;;5044298;28;20220;-32
2023/03/14 09:22:10;;;;;;;4.47;2.30;;;10.30;99.90;;;;;;5048874;28;20220;-31
2023/03/14 09:24:40;;;;;;;3.33;2.20;;;10.30;99.90;;;;;;5045463;28;20219;-31
2023/03/14 09:27:09;;;;;;;5.37;2.30;;;10.30;99.90;;;;;;5046141;28;20216;-31
2023/03/14 09:29:39;;;;;;;5.17;2.20;;;10.30;99.90;;;;;;5045469;28;20312;-31
2023/03/14 09:32:12;;;;;;;6.33;2.40;;;10.30;99.90;;;;;;5058116;28;20200;-31
2023/03/14 09:34:39;;;;;;;3.10;1.67;;;10.20;99.90;;;;;;5044495;28;20261;-31
2023/03/14 09:37:09;;;;;;;3.00;1.37;;;10.20;99.90;;;;;;5046996;28;20202;-31
2023/03/14 09:39:38;;;;;;;4.80;1.93;;;10.20;99.90;;;;;;5042262;28;20554;-31
2023/03/14 09:42:11;;;;;;;4.20;1.70;;;10.20;99.90;;;;;;5047293;28;20317;-31
2023/03/14 09:44:53;;;;;;;2.27;1.70;;;10.10;99.90;;;;;;5044636;28;20420;-31
2023/03/14 09:47:27;;;;;;;5.33;1.73;;;10.00;99.90;;;;;;5048026;28;20290;-31
2023/03/14 09:49:54;;;;;;;3.83;1.90;;;10.00;99.90;;;;;;5053543;28;20209;-31
2023/03/14 09:52:34;;;;;;;3.77;2.47;;;10.00;99.90;;;;;;5036432;28;20212;-31
2023/03/14 09:55:18;;;;;;;3.03;2.20;;;10.00;99.90;;;;;;5044722;28;20215;-31
2023/03/14 09:57:48;;;;;;;2.80;2.20;;;10.00;99.90;;;;;;5043724;28;20220;-31
2023/03/14 10:00:20;;;;;;;5.20;2.40;;;10.00;99.90;;;;;;5030201;28;20319;-31
2023/03/14 10:03:09;;;;;;;5.97;2.37;;;10.00;99.90;;;;;;5040600;28;20216;-31
2023/03/14 10:05:41;;;;;;;4.90;2.50;;;10.00;99.90;;;;;;5044489;28;20211;-31
2023/03/14 10:08:12;;;;;;;6.33;2.60;;;10.00;99.90;;;;;;5042727;28;20220;-31
2023/03/14 10:10:44;;;;;;;5.43;2.13;;;10.00;99.90;;;;;;5033948;28;20227;-31
2023/03/14 10:13:18;;;;;;;7.47;2.40;;;10.00;99.90;;;;;;5055132;28;20339;-31
2023/03/14 10:16:11;;;;;;;12.67;2.80;;;10.00;99.90;;;;;;5059423;28;20270;-31
2023/03/14 10:18:45;;;;;;;5.90;2.20;;;10.00;99.90;;;;;;5037330;28;20303;-31
2023/03/14 10:21:26;;;;;;;5.97;2.37;;;10.00;99.90;;;;;;5040866;28;20223;-31
2023/03/14 10:24:09;;;;;;;7.10;2.60;;;10.00;99.90;;;;;;5040578;28;20802;-32
2023/03/14 10:26:40;;;;;;;6.10;2.50;;;10.00;99.90;;;;;;5037444;28;20219;-32
2023/03/14 10:29:12;;;;;;;5.77;2.63;;;10.00;99.90;;;;;;5028113;28;20201;-32
2023/03/14 10:32:07;;;;;;;5.67;2.17;;;9.90;99.90;;;;;;5042516;28;20201;-33
2023/03/14 10:34:38;;;;;;;6.37;3.00;;;9.90;99.90;;;;;;5052238;28;20230;-32
2023/03/14 10:37:16;;;;;;;7.27;1.93;;;9.90;99.90;;;;;;5042527;28;20277;-32
2023/03/14 10:39:50;;;;;;;7.83;2.37;;;9.80;99.90;;;;;;5043394;28;20563;-32
2023/03/14 10:42:33;;;;;;;5.17;1.30;;;9.80;99.90;;;;;;5045279;28;20204;-32
2023/03/14 10:45:27;;;;;;;4.37;1.73;;;9.80;99.90;;;;;;5044955;28;20702;-32
2023/03/14 10:48:18;;;;;;;3.70;1.10;;;9.80;99.90;;;;;;5039777;28;20203;-32
2023/03/14 10:51:17;;;;;;;4.37;1.10;;;9.70;99.90;;;;;;5044512;28;20224;-32
2023/03/14 10:54:21;;;;;;;2.13;0.80;;;9.70;99.90;;;;;;5043646;28;20232;-32
2023/03/14 10:57:04;;;;;;;1.47;0.50;;;9.70;99.90;;;;;;5047292;28;20287;-32
2023/03/14 10:59:42;;;;;;;2.23;0.70;;;9.60;99.90;;;;;;5046096;28;20209;-33
2023/03/14 11:02:31;;;;;;;3.37;0.80;;;9.60;99.90;;;;;;5059813;28;20562;-32
2023/03/14 11:05:23;;;;;;;1.37;0.50;;;9.50;99.90;;;;;;5039915;28;20380;-32
2023/03/14 11:08:00;;;;;;;1.60;0.63;;;9.50;99.90;;;;;;5032092;28;20663;-33
2023/03/14 11:10:42;;;;;;;2.67;0.67;;;9.50;99.90;;;;;;5041657;28;20274;-33
2023/03/14 11:13:30;;;;;;;1.57;0.50;;;9.40;99.90;;;;;;5043653;28;20220;-33
2023/03/14 11:16:14;;;;;;;1.63;0.70;;;9.40;99.90;;;;;;5039470;28;20215;-33
2023/03/14 11:19:05;;;;;;;0.73;0.60;;;9.30;99.90;;;;;;5040851;28;20200;-32
2023/03/14 11:21:58;;;;;;;0.70;0.30;;;9.30;99.90;;;;;;5041858;28;20227;-32
2023/03/14 11:24:43;;;;;;;2.77;0.60;;;9.20;99.90;;;;;;5043970;28;20548;-32
2023/03/14 11:27:13;;;;;;;0.97;0.43;;;9.10;99.90;;;;;;5042253;28;20231;-32
2023/03/14 11:30:00;;;;;;;1.23;0.40;;;9.10;99.90;;;;;;5042788;28;20240;-33
2023/03/14 11:33:05;;;;;;;0.63;0.40;;;9.10;99.90;;;;;;5045394;28;20560;-33
2023/03/14 11:35:44;;;;;;;1.20;0.40;;;9.00;99.90;;;;;;5038071;28;20201;-33
2023/03/14 11:38:30;;;;;;;2.63;0.70;;;9.00;99.90;;;;;;5043574;28;20231;-33
2023/03/14 11:41:01;;;;;;;0.93;0.50;;;8.90;99.90;;;;;;5038378;28;20542;-33
2023/03/14 11:43:37;;;;;;;1.17;0.50;;;8.90;99.90;;;;;;5043466;28;20690;-33
2023/03/14 11:46:16;;;;;;;1.40;0.37;;;8.90;99.90;;;;;;5045074;28;20458;-33
2023/03/14 11:49:15;;;;;;;1.83;0.57;;;8.90;99.90;;;;;;5043673;28;20651;-33
2023/03/14 11:51:46;;;;;;;2.97;0.80;;;9.00;99.90;;;;;;5033530;28;20301;-33
2023/03/14 11:54:31;;;;;;;1.83;0.60;;;9.00;99.90;;;;;;5043293;28;20722;-33
2023/03/14 11:57:05;;;;;;;1.73;1.17;;;9.00;99.90;;;;;;5041492;28;20252;-34
2023/03/14 12:00:04;;;;;;;1.37;0.53;;;9.10;99.90;;;;;;5044476;28;20304;-33
2023/03/14 12:02:51;;;;;;;2.30;0.50;;;9.10;99.90;;;;;;5032139;28;20305;-33
2023/03/14 12:05:26;;;;;;;4.00;0.50;;;9.20;99.90;;;;;;5027974;28;20690;-33
2023/03/14 12:07:54;;;;;;;1.10;0.57;;;9.20;99.90;;;;;;5042898;28;20532;-34
2023/03/14 12:10:23;;;;;;;2.33;1.03;;;9.30;99.90;;;;;;5042047;28;20219;-34
2023/03/14 12:12:53;;;;;;;1.93;0.50;;;9.30;99.90;;;;;;5031783;28;20303;-33
2023/03/14 12:15:25;;;;;;;2.00;0.60;;;9.40;99.90;;;;;;5030111;28;20203;-33
2023/03/14 12:17:57;;;;;;;1.03;0.57;;;9.40;99.90;;;;;;5064211;28;20223;-33
2023/03/14 12:20:26;;;;;;;2.03;0.53;;;9.50;99.90;;;;;;5063869;28;20743;-32
2023/03/14 12:23:05;;;;;;;2.27;0.70;;;9.50;99.90;;;;;;5050189;28;20563;-34
2023/03/14 12:25:33;;;;;;;3.47;0.73;;;9.50;99.90;;;;;;5028563;28;20200;-33
2023/03/14 12:28:18;;;;;;;0.90;0.60;;;9.50;99.90;;;;;;5051656;28;20232;-33
2023/03/14 12:30:47;;;;;;;3.20;0.93;;;9.50;99.90;;;;;;5045993;28;20196;-34
2023/03/14 12:33:20;;;;;;;4.73;0.80;;;9.50;99.90;;;;;;5047667;28;20295;-34
2023/03/14 12:35:51;;;;;;;1.50;0.63;;;9.60;99.90;;;;;;5048468;28;20243;-33
2023/03/14 12:38:37;;;;;;;1.73;0.50;;;9.60;99.90;;;;;;5063413;28;20283;-33
2023/03/14 12:41:36;;;;;;;2.57;0.70;;;9.60;99.90;;;;;;5047230;28;20605;-33
2023/03/14 12:44:29;;;;;;;1.57;0.60;;;9.50;99.90;;;;;;5043229;28;20207;-34
2023/03/14 12:47:19;;;;;;;1.83;0.63;;;9.40;99.90;;;;;;5020104;28;20219;-34
2023/03/14 12:49:49;;;;;;;4.80;1.10;;;9.40;99.90;;;;;;5048220;28;20201;-33
2023/03/14 12:52:29;;;;;;;5.97;1.40;;;9.40;99.90;;;;;;5048014;28;20212;-34
2023/03/14 12:55:10;;;;;;;10.03;2.63;;;9.30;99.90;;;;;;5044108;28;20334;-33
2023/03/14 12:57:47;;;;;;;7.97;1.20;;;9.30;99.90;;;;;;5047955;28;20196;-33
2023/03/14 13:00:21;;;;;;;10.20;1.80;;;9.20;99.90;;;;;;5047803;28;20231;-33
2023/03/14 13:02:52;;;;;;;12.30;2.10;;;9.20;99.90;;;;;;5043278;28;20290;-33
2023/03/14 13:05:24;;;;;;;9.33;2.00;;;9.20;99.90;;;;;;5041605;28;20683;-33
2023/03/14 13:07:55;;;;;;;7.80;1.90;;;9.20;99.90;;;;;;5062779;28;20207;-33
2023/03/14 13:10:30;;;;;;;10.47;1.50;;;9.20;99.90;;;;;;5045978;28;20196;-33
2023/03/14 13:13:07;;;;;;;8.30;1.50;;;9.20;99.90;;;;;;5042342;28;20224;-34
2023/03/14 13:15:50;;;;;;;6.17;1.67;;;9.20;99.90;;;;;;5050242;28;20203;-33